createdAt,value
2023-03-02T00:02:06.200Z,25.20
2023-03-02T00:04:38.916Z,27.40
2023-03-02T00:07:09.959Z,27.10
2023-03-02T00:09:38.986Z,31.07
2023-03-02T00:12:08.790Z,26.93
2023-03-02T00:14:39.034Z,26.67
2023-03-02T00:17:08.277Z,26.47
2023-03-02T00:19:36.688Z,26.80
2023-03-02T00:22:05.055Z,25.77
2023-03-02T00:24:33.369Z,27.03
2023-03-02T00:27:01.713Z,27.37
2023-03-02T00:29:29.858Z,24.23
2023-03-02T00:31:59.900Z,29.27
2023-03-02T00:34:28.072Z,25.10
2023-03-02T00:36:56.374Z,25.23
2023-03-02T00:39:24.452Z,28.77
2023-03-02T00:41:52.661Z,28.73
2023-03-02T00:44:21.434Z,25.43
2023-03-02T00:46:49.565Z,27.40
2023-03-02T00:49:19.078Z,30.33
2023-03-02T00:51:47.451Z,29.63
2023-03-02T00:54:15.881Z,29.80
2023-03-02T00:56:44.296Z,32.23
2023-03-02T00:59:26.308Z,32.47
2023-03-02T01:02:03.007Z,29.67
2023-03-02T01:04:37.237Z,30.63
2023-03-02T01:07:08.138Z,31.70
2023-03-02T01:09:36.235Z,31.73
2023-03-02T01:12:05.526Z,32.97
2023-03-02T01:14:33.787Z,29.50
2023-03-02T01:17:01.886Z,32.27
2023-03-02T01:19:30.959Z,32.07
2023-03-02T01:22:00.584Z,28.03
2023-03-02T01:24:28.807Z,28.90
2023-03-02T01:26:57.063Z,34.60
2023-03-02T01:29:25.238Z,28.80
2023-03-02T01:31:53.840Z,28.73
2023-03-02T01:34:22.270Z,27.20
2023-03-02T01:36:50.450Z,29.77
2023-03-02T01:39:22.363Z,31.37
2023-03-02T01:41:52.529Z,25.37
2023-03-02T01:44:41.049Z,28.87
2023-03-02T01:47:18.159Z,29.27
2023-03-02T01:50:20.823Z,30.97
2023-03-02T01:52:54.235Z,31.23
2023-03-02T01:55:28.283Z,27.87
2023-03-02T01:57:58.518Z,27.00
2023-03-02T02:00:33.351Z,28.50
2023-03-02T02:03:09.934Z,28.33
2023-03-02T02:05:40.528Z,30.73
2023-03-02T02:08:10.592Z,32.47
2023-03-02T02:10:41.508Z,33.63
2023-03-02T02:13:11.710Z,30.77
2023-03-02T02:15:41.469Z,29.07
2023-03-02T02:18:10.244Z,29.37
2023-03-02T02:20:41.518Z,32.00
2023-03-02T02:23:25.705Z,32.80
2023-03-02T02:26:18.423Z,30.93
2023-03-02T02:28:57.988Z,32.07
2023-03-02T02:31:35.318Z,31.77
2023-03-02T02:34:11.186Z,33.27
2023-03-02T02:36:43.105Z,30.80
2023-03-02T02:39:20.209Z,27.30
2023-03-02T02:41:52.683Z,28.50
2023-03-02T02:44:21.109Z,27.03
2023-03-02T02:46:49.351Z,32.47
2023-03-02T02:49:28.679Z,31.30
2023-03-02T02:51:56.890Z,25.30
2023-03-02T02:54:25.500Z,28.87
2023-03-02T02:56:56.865Z,27.43
2023-03-02T02:59:28.869Z,31.00
2023-03-02T03:02:00.126Z,30.40
2023-03-02T03:04:31.734Z,28.70
2023-03-02T03:07:02.601Z,29.83
2023-03-02T03:09:32.221Z,25.43
2023-03-02T03:12:10.706Z,32.60
2023-03-02T03:14:41.940Z,34.30
2023-03-02T03:17:13.789Z,34.20
2023-03-02T03:19:49.012Z,36.23
2023-03-02T03:22:18.746Z,29.47
2023-03-02T03:24:49.510Z,31.43
2023-03-02T03:27:20.717Z,28.27
2023-03-02T03:29:49.351Z,29.50
2023-03-02T03:32:20.055Z,30.30
2023-03-02T03:34:50.712Z,27.67
2023-03-02T03:37:26.829Z,30.20
2023-03-02T03:39:55.092Z,26.93
2023-03-02T03:42:25.392Z,30.97
2023-03-02T03:44:55.607Z,28.83
2023-03-02T03:47:24.686Z,37.57
2023-03-02T03:49:53.395Z,26.53
2023-03-02T03:52:30.428Z,30.87
2023-03-02T03:55:05.784Z,27.33
2023-03-02T03:57:39.469Z,26.53
2023-03-02T04:00:10.858Z,27.43
2023-03-02T04:02:51.341Z,33.70
2023-03-02T04:05:20.217Z,27.00
2023-03-02T04:07:51.989Z,30.13
2023-03-02T04:10:20.882Z,33.03
2023-03-02T04:12:51.454Z,31.33
2023-03-02T04:15:19.881Z,30.17
2023-03-02T04:17:49.685Z,29.47
2023-03-02T04:20:21.663Z,33.00
2023-03-02T04:22:54.193Z,29.13
2023-03-02T04:25:24.986Z,32.60
2023-03-02T04:28:00.470Z,31.57
2023-03-02T04:30:34.066Z,27.83
2023-03-02T04:33:02.293Z,27.33
2023-03-02T04:35:31.550Z,25.83
2023-03-02T04:38:01.185Z,30.17
2023-03-02T04:40:29.479Z,29.23
2023-03-02T04:42:57.560Z,30.40
2023-03-02T04:45:27.165Z,30.57
2023-03-02T04:47:55.186Z,31.63
2023-03-02T04:50:23.374Z,29.43
2023-03-02T04:52:51.593Z,29.70
2023-03-02T04:55:23.119Z,28.10
2023-03-02T04:57:51.412Z,29.03
2023-03-02T05:00:20.963Z,26.30
2023-03-02T05:02:50.633Z,26.90
2023-03-02T05:05:21.956Z,35.40
2023-03-02T05:07:50.280Z,33.23
2023-03-02T05:10:19.710Z,26.03
2023-03-02T05:12:58.761Z,29.43
2023-03-02T05:15:28.905Z,33.43
2023-03-02T05:17:58.702Z,33.10
2023-03-02T05:20:30.264Z,27.27
2023-03-02T05:23:00.730Z,29.07
2023-03-02T05:25:30.267Z,34.03
2023-03-02T05:27:58.378Z,31.10
2023-03-02T05:30:26.810Z,30.87
2023-03-02T05:32:55.293Z,30.17
2023-03-02T05:35:24.994Z,25.73
2023-03-02T05:37:53.268Z,31.83
2023-03-02T05:40:23.008Z,34.87
2023-03-02T05:42:51.579Z,25.97
2023-03-02T05:45:24.024Z,31.83
2023-03-02T05:47:52.439Z,29.17
2023-03-02T05:50:20.626Z,32.60
2023-03-02T05:52:51.342Z,34.17
2023-03-02T05:55:20.359Z,30.80
2023-03-02T05:57:49.658Z,33.40
2023-03-02T06:00:19.172Z,30.57
2023-03-02T06:02:47.845Z,33.90
2023-03-02T06:05:17.625Z,35.03
2023-03-02T06:07:46.359Z,35.03
2023-03-02T06:10:16.060Z,31.33
2023-03-02T06:12:44.314Z,31.40
2023-03-02T06:15:12.651Z,30.97
2023-03-02T06:17:40.841Z,31.77
2023-03-02T06:20:11.736Z,31.83
2023-03-02T06:22:42.065Z,32.77
2023-03-02T06:25:12.113Z,30.47
2023-03-02T06:27:42.130Z,31.47
2023-03-02T06:30:12.766Z,31.63
2023-03-02T06:32:41.165Z,41.93
2023-03-02T06:35:10.713Z,34.00
2023-03-02T06:37:39.094Z,36.93
2023-03-02T06:40:10.363Z,38.73
2023-03-02T06:42:39.464Z,34.27
2023-03-02T06:45:10.690Z,39.70
2023-03-02T06:47:38.859Z,38.40
2023-03-02T06:50:08.249Z,35.40
2023-03-02T06:52:36.679Z,35.77
2023-03-02T06:55:05.208Z,30.60
2023-03-02T06:57:34.676Z,31.10
2023-03-02T07:00:09.553Z,37.13
2023-03-02T07:02:39.096Z,32.80
2023-03-02T07:05:08.485Z,33.30
2023-03-02T07:07:36.677Z,37.03
2023-03-02T07:10:05.225Z,42.90
2023-03-02T07:12:33.525Z,47.73
2023-03-02T07:15:01.633Z,42.20
2023-03-02T07:17:29.843Z,33.77
2023-03-02T07:19:59.469Z,38.07
2023-03-02T07:22:27.540Z,42.23
2023-03-02T07:24:55.604Z,34.53
2023-03-02T07:27:23.988Z,33.30
2023-03-02T07:29:52.180Z,33.27
2023-03-02T07:32:20.302Z,35.77
2023-03-02T07:34:48.307Z,38.60
2023-03-02T07:37:17.892Z,34.73
2023-03-02T07:39:45.948Z,43.77
2023-03-02T07:42:14.232Z,36.93
2023-03-02T07:44:44.215Z,37.87
2023-03-02T07:47:12.426Z,39.53
2023-03-02T07:49:40.622Z,34.77
2023-03-02T07:52:08.648Z,42.53
2023-03-02T07:54:38.258Z,40.10
2023-03-02T07:57:06.404Z,39.17
2023-03-02T07:59:34.554Z,37.53
2023-03-02T08:02:02.549Z,36.10
2023-03-02T08:04:30.617Z,29.00
2023-03-02T08:06:58.702Z,31.47
2023-03-02T08:09:26.823Z,28.93
2023-03-02T08:11:56.203Z,32.83
2023-03-02T08:14:24.423Z,29.33
2023-03-02T08:16:53.039Z,30.17
2023-03-02T08:19:21.221Z,26.63
2023-03-02T08:21:49.191Z,34.80
2023-03-02T08:24:17.600Z,30.87
2023-03-02T08:26:45.694Z,32.23
2023-03-02T08:29:15.238Z,29.10
2023-03-02T08:31:43.353Z,29.80
2023-03-02T08:34:12.184Z,29.00
2023-03-02T08:36:40.927Z,28.27
2023-03-02T08:39:09.033Z,25.50
2023-03-02T08:41:37.207Z,23.47
2023-03-02T08:44:05.266Z,28.10
2023-03-02T08:46:34.644Z,27.87
2023-03-02T08:49:02.768Z,25.30
2023-03-02T08:51:31.442Z,24.10
2023-03-02T08:53:59.798Z,27.30
2023-03-02T08:56:29.902Z,29.33
2023-03-02T08:59:00.798Z,25.50
2023-03-02T09:01:30.971Z,23.40
2023-03-02T09:04:01.235Z,26.13
2023-03-02T09:06:30.820Z,22.67
2023-03-02T09:08:59.672Z,20.30
2023-03-02T09:11:27.909Z,25.07
2023-03-02T09:13:56.253Z,25.20
2023-03-02T09:16:25.758Z,26.90
2023-03-02T09:18:54.450Z,24.57
2023-03-02T09:21:23.983Z,24.27
2023-03-02T09:23:53.783Z,20.77
2023-03-02T09:26:21.922Z,19.37
2023-03-02T09:28:50.184Z,27.07
2023-03-02T09:31:18.198Z,20.57
2023-03-02T09:33:46.233Z,26.13
2023-03-02T09:36:22.978Z,21.90
2023-03-02T09:38:52.990Z,19.70
2023-03-02T09:41:56.045Z,19.00
2023-03-02T09:44:56.956Z,23.40
2023-03-02T09:47:35.909Z,20.70
2023-03-02T09:50:26.571Z,24.00
2023-03-02T09:53:15.324Z,24.30
2023-03-02T09:55:55.193Z,21.90
2023-03-02T09:58:26.896Z,21.07
2023-03-02T10:00:55.007Z,19.30
2023-03-02T10:03:24.670Z,19.93
2023-03-02T10:05:54.559Z,21.87
2023-03-02T10:08:24.590Z,19.97
2023-03-02T10:11:00.938Z,20.93
2023-03-02T10:13:33.463Z,22.00
2023-03-02T10:16:14.691Z,18.83
2023-03-02T10:18:47.839Z,20.10
2023-03-02T10:21:25.975Z,17.30
2023-03-02T10:23:59.996Z,17.60
2023-03-02T10:26:38.767Z,19.10
2023-03-02T10:29:33.060Z,22.40
2023-03-02T10:32:14.609Z,16.53
2023-03-02T10:34:42.713Z,17.50
2023-03-02T10:37:14.844Z,19.73
2023-03-02T10:39:42.999Z,16.33
2023-03-02T10:42:18.415Z,16.83
2023-03-02T10:44:49.840Z,15.63
2023-03-02T10:47:23.242Z,16.63
2023-03-02T10:49:52.028Z,19.47
2023-03-02T10:52:22.165Z,15.37
2023-03-02T10:54:50.482Z,20.93
2023-03-02T10:57:37.385Z,17.73
2023-03-02T11:00:16.274Z,13.50
2023-03-02T11:02:51.487Z,16.60
2023-03-02T11:05:28.756Z,14.07
2023-03-02T11:07:58.995Z,17.80
2023-03-02T11:10:31.800Z,15.17
2023-03-02T11:13:02.897Z,16.57
2023-03-02T11:15:38.051Z,18.50
2023-03-02T11:18:09.482Z,16.40
2023-03-02T11:20:40.689Z,16.20
2023-03-02T11:23:23.523Z,14.57
2023-03-02T11:25:54.681Z,16.00
2023-03-02T11:28:33.924Z,16.40
2023-03-02T11:31:04.045Z,15.80
2023-03-02T11:33:38.326Z,16.47
2023-03-02T11:36:12.521Z,16.83
2023-03-02T11:38:48.420Z,16.53
2023-03-02T11:41:29.769Z,15.53
2023-03-02T11:44:01.930Z,17.30
2023-03-02T11:46:33.353Z,14.83
2023-03-02T11:49:06.594Z,16.30
2023-03-02T11:51:39.087Z,17.50
2023-03-02T11:54:24.931Z,15.37
2023-03-02T11:56:52.934Z,13.50
2023-03-02T11:59:25.755Z,14.07
2023-03-02T12:01:57.053Z,13.40
2023-03-02T12:04:29.429Z,16.40
2023-03-02T12:06:57.829Z,15.20
2023-03-02T12:09:33.225Z,14.07
2023-03-02T12:12:16.214Z,14.93
2023-03-02T12:14:45.830Z,13.30
2023-03-02T12:17:23.898Z,14.50
2023-03-02T12:19:54.447Z,13.57
2023-03-02T12:22:29.791Z,15.00
2023-03-02T12:25:07.084Z,15.07
2023-03-02T12:27:38.940Z,13.97
2023-03-02T12:30:26.690Z,15.37
2023-03-02T12:33:05.018Z,15.80
2023-03-02T12:35:34.608Z,16.43
2023-03-02T12:38:06.960Z,16.80
2023-03-02T12:40:46.114Z,13.13
2023-03-02T12:43:27.668Z,12.13
2023-03-02T12:46:26.879Z,16.57
2023-03-02T12:49:15.171Z,18.57
2023-03-02T12:51:51.664Z,11.17
2023-03-02T12:54:22.719Z,17.33
2023-03-02T12:56:51.599Z,13.00
2023-03-02T12:59:23.505Z,13.63
2023-03-02T13:01:53.348Z,12.53
2023-03-02T13:04:27.280Z,12.03
2023-03-02T13:06:55.890Z,14.77
2023-03-02T13:09:24.771Z,13.13
2023-03-02T13:11:55.030Z,13.80
2023-03-02T13:14:27.836Z,15.93
2023-03-02T13:17:02.867Z,13.47
2023-03-02T13:19:32.059Z,10.63
2023-03-02T13:22:01.087Z,11.80
2023-03-02T13:24:45.579Z,14.90
2023-03-02T13:27:18.617Z,15.77
2023-03-02T13:29:47.052Z,14.87
2023-03-02T13:32:22.238Z,14.07
2023-03-02T13:34:52.608Z,11.47
2023-03-02T13:37:24.011Z,13.23
2023-03-02T13:39:59.660Z,13.83
2023-03-02T13:42:30.113Z,15.17
2023-03-02T13:44:58.242Z,17.20
2023-03-02T13:47:27.634Z,15.03
2023-03-02T13:49:55.723Z,13.03
2023-03-02T13:52:28.898Z,15.63
2023-03-02T13:54:56.968Z,12.40
2023-03-02T13:57:30.856Z,13.30
2023-03-02T13:59:59.464Z,13.67
2023-03-02T14:02:30.490Z,12.83
2023-03-02T14:04:59.318Z,13.00
2023-03-02T14:07:27.465Z,13.17
2023-03-02T14:09:57.557Z,13.60
2023-03-02T14:12:28.863Z,13.27
2023-03-02T14:14:59.619Z,13.90
2023-03-02T14:17:29.686Z,10.73
2023-03-02T14:19:57.810Z,20.30
2023-03-02T14:22:29.651Z,13.00
2023-03-02T14:24:57.820Z,13.17
2023-03-02T14:27:30.027Z,15.80
2023-03-02T14:29:58.144Z,14.83
2023-03-02T14:32:26.331Z,11.80
2023-03-02T14:34:55.729Z,14.37
2023-03-02T14:37:28.436Z,14.97
2023-03-02T14:39:56.890Z,12.57
2023-03-02T14:42:25.380Z,10.70
2023-03-02T14:44:53.439Z,15.37
2023-03-02T14:47:21.978Z,16.40
2023-03-02T14:49:50.014Z,13.40
2023-03-02T14:52:25.006Z,11.07
2023-03-02T14:54:56.279Z,15.60
2023-03-02T14:57:26.178Z,11.70
2023-03-02T14:59:59.800Z,12.63
2023-03-02T15:02:28.883Z,12.23
2023-03-02T15:04:58.031Z,12.07
2023-03-02T15:07:28.706Z,10.97
2023-03-02T15:09:57.301Z,14.60
2023-03-02T15:12:25.773Z,12.90
2023-03-02T15:14:53.805Z,12.53
2023-03-02T15:17:21.843Z,13.23
2023-03-02T15:19:49.852Z,11.60
2023-03-02T15:22:18.052Z,14.40
2023-03-02T15:24:47.543Z,13.17
2023-03-02T15:27:15.989Z,11.97
2023-03-02T15:29:45.833Z,14.97
2023-03-02T15:32:14.552Z,15.10
2023-03-02T15:34:43.177Z,17.40
2023-03-02T15:37:11.861Z,11.40
2023-03-02T15:39:39.898Z,16.53
2023-03-02T15:42:09.401Z,10.07
2023-03-02T15:44:37.543Z,14.40
2023-03-02T15:47:05.859Z,12.37
2023-03-02T15:49:33.959Z,13.57
2023-03-02T15:52:02.259Z,19.40
2023-03-02T15:54:30.421Z,23.73
2023-03-02T15:56:58.572Z,24.03
2023-03-02T15:59:29.848Z,25.27
2023-03-02T16:01:59.738Z,26.10
2023-03-02T16:04:28.337Z,25.80
2023-03-02T16:06:57.021Z,23.80
2023-03-02T16:09:26.554Z,25.63
2023-03-02T16:11:54.709Z,28.47
2023-03-02T16:14:23.186Z,27.07
2023-03-02T16:16:53.325Z,31.80
2023-03-02T16:19:21.486Z,26.60
2023-03-02T16:21:49.834Z,24.07
2023-03-02T16:24:18.332Z,25.67
2023-03-02T16:26:46.765Z,27.20
2023-03-02T16:29:15.443Z,29.30
2023-03-02T16:31:46.966Z,30.37
2023-03-02T16:34:17.527Z,30.70
2023-03-02T16:36:46.092Z,28.53
2023-03-02T16:39:21.749Z,32.50
2023-03-02T16:41:51.290Z,33.17
2023-03-02T16:44:20.054Z,30.93
2023-03-02T16:46:48.158Z,28.77
2023-03-02T16:49:17.934Z,28.00
2023-03-02T16:51:45.982Z,32.00
2023-03-02T16:54:17.579Z,30.67
2023-03-02T16:56:47.264Z,30.57
2023-03-02T16:59:15.622Z,30.93
2023-03-02T17:01:44.104Z,30.80
2023-03-02T17:04:12.222Z,32.87
2023-03-02T17:06:59.526Z,39.83
2023-03-02T17:09:29.094Z,33.40
2023-03-02T17:12:00.113Z,33.07
2023-03-02T17:14:28.868Z,30.30
2023-03-02T17:16:57.870Z,32.53
2023-03-02T17:19:29.708Z,37.77
2023-03-02T17:22:00.576Z,31.50
2023-03-02T17:24:29.904Z,36.57
2023-03-02T17:26:58.324Z,33.97
2023-03-02T17:29:26.390Z,34.80
2023-03-02T17:31:54.858Z,36.20
2023-03-02T17:34:23.001Z,34.60
2023-03-02T17:36:51.065Z,33.13
2023-03-02T17:39:20.532Z,35.90
2023-03-02T17:41:48.739Z,37.90
2023-03-02T17:44:16.856Z,35.30
2023-03-02T17:46:45.946Z,35.10
2023-03-02T17:49:14.194Z,33.90
2023-03-02T17:51:42.404Z,38.03
2023-03-02T17:54:10.441Z,33.30
2023-03-02T17:56:39.937Z,34.30
2023-03-02T17:59:08.115Z,35.07
2023-03-02T18:01:36.512Z,36.97
2023-03-02T18:04:05.373Z,38.30
2023-03-02T18:06:33.741Z,35.00
2023-03-02T18:09:01.859Z,35.70
2023-03-02T18:11:29.844Z,36.57
2023-03-02T18:13:59.575Z,53.13
2023-03-02T18:16:29.315Z,43.60
2023-03-02T18:19:00.240Z,40.17
2023-03-02T18:21:28.502Z,38.40
2023-03-02T18:23:56.905Z,42.87
2023-03-02T18:26:25.559Z,38.60
2023-03-02T18:28:53.801Z,44.33
2023-03-02T18:31:23.688Z,36.37
2023-03-02T18:33:52.043Z,38.33
2023-03-02T18:36:20.319Z,41.73
2023-03-02T18:38:48.432Z,43.07
2023-03-02T18:41:16.795Z,39.20
2023-03-02T18:43:44.967Z,41.87
2023-03-02T18:46:20.888Z,40.50
2023-03-02T18:48:51.081Z,41.50
2023-03-02T18:51:19.535Z,39.87
2023-03-02T18:53:48.093Z,42.23
2023-03-02T18:56:16.726Z,44.33
2023-03-02T18:58:45.579Z,41.67
2023-03-02T19:01:13.991Z,39.70
2023-03-02T19:03:45.810Z,44.93
2023-03-02T19:06:16.582Z,41.97
2023-03-02T19:08:44.952Z,43.70
2023-03-02T19:11:13.954Z,38.47
2023-03-02T19:13:42.225Z,42.60
2023-03-02T19:16:10.549Z,38.50
2023-03-02T19:18:39.423Z,37.80
2023-03-02T19:21:08.010Z,42.40
2023-03-02T19:23:38.347Z,40.30
2023-03-02T19:26:06.797Z,40.40
2023-03-02T19:28:36.119Z,43.03
2023-03-02T19:31:06.585Z,44.53
2023-03-02T19:33:35.177Z,44.37
2023-03-02T19:36:03.334Z,43.23
2023-03-02T19:38:31.569Z,42.50
2023-03-02T19:41:02.722Z,46.57
2023-03-02T19:43:31.018Z,43.90
2023-03-02T19:45:59.319Z,44.53
2023-03-02T19:48:29.697Z,46.30
2023-03-02T19:50:58.136Z,49.47
2023-03-02T19:53:26.262Z,45.90
2023-03-02T19:55:54.463Z,44.97
2023-03-02T19:58:23.864Z,42.43
2023-03-02T20:00:52.190Z,53.50
2023-03-02T20:03:20.810Z,44.77
2023-03-02T20:05:48.970Z,39.10
2023-03-02T20:08:17.930Z,46.90
2023-03-02T20:10:49.510Z,46.60
2023-03-02T20:13:18.718Z,45.50
2023-03-02T20:15:48.786Z,40.03
2023-03-02T20:18:19.375Z,49.43
2023-03-02T20:20:48.695Z,47.07
2023-03-02T20:23:17.707Z,46.27
2023-03-02T20:25:48.219Z,48.63
2023-03-02T20:28:18.687Z,51.03
2023-03-02T20:30:52.528Z,44.67
2023-03-02T20:33:23.260Z,47.83
2023-03-02T20:35:52.115Z,52.53
2023-03-02T20:38:28.099Z,48.70
2023-03-02T20:40:59.887Z,42.77
2023-03-02T20:43:29.948Z,50.57
2023-03-02T20:46:01.459Z,48.67
2023-03-02T20:48:30.283Z,45.77
2023-03-02T20:51:00.672Z,43.70
2023-03-02T20:53:29.485Z,46.57
2023-03-02T20:55:58.358Z,44.40
2023-03-02T20:58:26.493Z,45.30
2023-03-02T21:00:55.952Z,48.97
2023-03-02T21:03:25.653Z,51.90
2023-03-02T21:05:55.003Z,45.40
2023-03-02T21:08:23.781Z,40.43
2023-03-02T21:10:51.925Z,47.37
2023-03-02T21:13:22.502Z,45.77
2023-03-02T21:15:51.526Z,48.60
2023-03-02T21:18:20.589Z,41.53
2023-03-02T21:20:50.558Z,47.23
2023-03-02T21:23:18.746Z,39.80
2023-03-02T21:25:47.288Z,45.47
2023-03-02T21:28:15.635Z,43.03
2023-03-02T21:30:43.710Z,46.83
2023-03-02T21:33:11.858Z,46.43
2023-03-02T21:35:40.271Z,45.27
2023-03-02T21:38:09.797Z,40.33
2023-03-02T21:40:43.083Z,45.43
2023-03-02T21:43:11.262Z,44.53
2023-03-02T21:45:39.468Z,42.00
2023-03-02T21:48:08.842Z,40.13
2023-03-02T21:50:39.625Z,40.63
2023-03-02T21:53:09.562Z,39.50
2023-03-02T21:55:38.567Z,46.67
2023-03-02T21:58:07.187Z,104.33
2023-03-02T22:00:38.544Z,61.83
2023-03-02T22:03:07.600Z,55.83
2023-03-02T22:05:36.513Z,48.47
2023-03-02T22:08:05.169Z,44.77
2023-03-02T22:10:40.110Z,66.47
2023-03-02T22:13:18.151Z,44.00
2023-03-02T22:15:47.640Z,49.10
2023-03-02T22:18:18.405Z,39.00
2023-03-02T22:20:49.974Z,47.10
2023-03-02T22:23:23.099Z,44.53
2023-03-02T22:30:21.599Z,39.90
2023-03-02T22:32:50.358Z,39.97
2023-03-02T22:35:24.688Z,42.07
2023-03-02T22:38:00.883Z,38.60
2023-03-02T22:40:32.134Z,40.10
2023-03-02T22:43:13.258Z,46.47
2023-03-02T22:45:43.383Z,41.50
2023-03-02T22:48:16.682Z,42.63
2023-03-02T22:50:46.267Z,45.83
2023-03-02T22:53:29.436Z,46.13
2023-03-02T22:56:02.325Z,45.60
2023-03-02T22:58:35.672Z,42.47
2023-03-02T23:01:19.862Z,39.80
2023-03-02T23:03:49.289Z,40.03
2023-03-02T23:06:26.880Z,42.43
2023-03-02T23:08:56.688Z,42.33
2023-03-02T23:11:25.794Z,45.67
2023-03-02T23:13:54.970Z,42.97
2023-03-02T23:16:26.323Z,41.53
2023-03-02T23:18:56.560Z,44.57
2023-03-02T23:21:28.302Z,42.40
2023-03-02T23:23:56.818Z,43.00
2023-03-02T23:26:25.013Z,38.50
2023-03-02T23:28:53.189Z,36.13
2023-03-02T23:31:21.495Z,41.40
2023-03-02T23:33:51.141Z,41.70
2023-03-02T23:36:20.993Z,44.07
2023-03-02T23:38:49.514Z,38.03
2023-03-02T23:41:18.298Z,40.80
2023-03-02T23:43:46.468Z,44.80
2023-03-02T23:46:14.695Z,38.13
2023-03-02T23:48:43.411Z,41.37
2023-03-02T23:51:13.228Z,43.87
2023-03-02T23:53:41.367Z,42.87
2023-03-02T23:56:09.829Z,39.70
2023-03-02T23:58:38.191Z,45.10
